createdAt,value
2022-09-04T00:01:54.179Z,99879.72
2022-09-04T00:05:17.275Z,99855.06
2022-09-04T00:08:35.147Z,99849.09
2022-09-04T00:12:05.715Z,99829.66
2022-09-04T00:15:03.843Z,99811.38
2022-09-04T00:18:05.779Z,99803.81
2022-09-04T00:21:26.044Z,99801.06
2022-09-04T00:24:18.691Z,99820.16
2022-09-04T00:27:10.970Z,99809.06
2022-09-04T00:30:03.373Z,99789.16
2022-09-04T00:33:01.681Z,99774.81
2022-09-04T00:35:56.220Z,99774.03
2022-09-04T00:38:58.599Z,99765.66
2022-09-04T00:42:07.414Z,99760.50
2022-09-04T00:45:16.285Z,99769.25
2022-09-04T00:48:18.620Z,99754.91
2022-09-04T00:51:48.901Z,99750.13
2022-09-04T00:54:52.817Z,99742.56
2022-09-04T00:57:49.896Z,99731.84
2022-09-04T01:00:37.088Z,99719.09
2022-09-04T01:03:30.730Z,99715.13
2022-09-04T01:06:41.398Z,99717.13
2022-09-04T01:09:44.208Z,99714.31
2022-09-04T01:12:34.059Z,99700.81
2022-09-04T01:15:58.455Z,99693.63
2022-09-04T01:19:05.243Z,99670.97
2022-09-04T01:22:12.340Z,99662.63
2022-09-04T01:25:36.193Z,99637.16
2022-09-04T01:28:55.452Z,99643.53
2022-09-04T01:31:55.577Z,99641.13
2022-09-04T01:35:00.975Z,99645.91
2022-09-04T01:38:25.687Z,99649.09
2022-09-04T01:41:03.555Z,99638.72
2022-09-04T01:43:33.200Z,99630.78
2022-09-04T01:49:57.388Z,99613.25
2022-09-04T01:52:30.203Z,99610.88
2022-09-04T01:55:25.695Z,99611.28
2022-09-04T01:58:30.272Z,99595.75
2022-09-04T02:01:38.592Z,99602.91
2022-09-04T02:04:28.746Z,99594.16
2022-09-04T02:07:24.455Z,99579.03
2022-09-04T02:10:25.782Z,99556.34
2022-09-04T02:13:22.522Z,99558.31
2022-09-04T02:16:26.812Z,99539.25
2022-09-04T02:19:55.746Z,99529.28
2022-09-04T02:23:03.659Z,99512.19
2022-09-04T02:26:11.379Z,99493.88
2022-09-04T02:29:23.629Z,99482.72
2022-09-04T02:32:18.799Z,99449.72
2022-09-04T02:35:32.837Z,99442.97
2022-09-04T02:38:38.323Z,99424.22
2022-09-04T02:41:37.383Z,99431.00
2022-09-04T02:44:45.139Z,99412.69
2022-09-04T02:47:53.758Z,99403.97
2022-09-04T02:51:14.085Z,99403.97
2022-09-04T02:54:28.190Z,99378.50
2022-09-04T02:57:44.026Z,99380.88
2022-09-04T06:04:23.237Z,99809.19
2022-09-04T06:07:23.767Z,99818.25
2022-09-04T06:09:59.964Z,99828.94
2022-09-04T06:12:47.939Z,99847.56
2022-09-04T06:15:58.258Z,99857.81
2022-09-04T06:22:50.151Z,99877.97
2022-09-04T06:25:48.410Z,99872.34
2022-09-04T06:28:50.524Z,99871.97
2022-09-04T06:31:20.142Z,99877.88
2022-09-04T06:34:34.322Z,99900.97
2022-09-04T06:37:36.682Z,99885.97
2022-09-04T06:40:11.174Z,99901.06
2022-09-04T06:42:48.000Z,99907.47
2022-09-04T06:45:17.728Z,99913.44
2022-09-04T06:47:47.521Z,99902.41
2022-09-04T06:50:59.362Z,99918.72
2022-09-04T06:54:11.779Z,99929.84
2022-09-04T06:56:56.595Z,99937.81
2022-09-04T07:03:42.695Z,99948.25
2022-09-04T07:10:43.636Z,99970.19
2022-09-04T07:13:31.844Z,99976.22
2022-09-04T07:21:22.962Z,100009.28
2022-09-04T07:28:33.751Z,100005.88
2022-09-04T07:31:29.444Z,100006.72
2022-09-04T07:34:46.965Z,100018.31
2022-09-04T07:37:58.867Z,100023.13
2022-09-04T07:40:50.981Z,100029.13
2022-09-04T07:51:10.722Z,100042.41
2022-09-04T07:54:25.135Z,100036.16
2022-09-04T07:57:39.585Z,100043.72
2022-09-04T08:01:04.156Z,100044.97
2022-09-04T08:03:53.742Z,100051.81
2022-09-04T08:12:16.894Z,100071.56
2022-09-04T08:15:15.873Z,100074.88
2022-09-04T08:18:01.812Z,100085.75
2022-09-04T08:21:06.415Z,100094.59
2022-09-04T08:24:08.464Z,100101.03
2022-09-04T08:27:10.011Z,100109.13
2022-09-04T08:30:07.939Z,100116.53
2022-09-04T08:32:53.395Z,100138.97
2022-09-04T08:39:30.328Z,100138.63
2022-09-04T08:42:44.820Z,100146.84
2022-09-04T08:45:55.390Z,100165.38
2022-09-04T08:53:15.087Z,100176.03
2022-09-04T08:56:18.687Z,100179.00
2022-09-04T08:59:39.996Z,100183.75
2022-09-04T09:02:45.660Z,100187.91
2022-09-04T09:05:43.586Z,100198.19
2022-09-04T09:08:51.865Z,100185.88
2022-09-04T09:12:27.173Z,100190.38
2022-09-04T09:15:46.744Z,100191.56
2022-09-04T09:19:07.125Z,100195.47
2022-09-04T09:22:28.231Z,100209.38
2022-09-04T09:25:22.017Z,100207.59
2022-09-04T09:29:06.282Z,100209.19
2022-09-04T09:36:27.837Z,100214.91
2022-09-04T09:39:46.810Z,100231.59
2022-09-04T09:47:04.909Z,100244.16
2022-09-04T09:57:01.947Z,100240.38
2022-09-04T09:59:55.908Z,100245.88
2022-09-04T10:02:31.633Z,100265.47
2022-09-04T10:05:19.535Z,100263.00
2022-09-04T10:08:35.605Z,100261.31
2022-09-04T10:11:41.678Z,100268.31
2022-09-04T10:15:04.248Z,100274.84
2022-09-04T10:18:13.767Z,100267.84
2022-09-04T10:21:13.062Z,100271.88
2022-09-04T10:24:24.473Z,100271.94
2022-09-04T10:27:14.418Z,100274.66
2022-09-04T10:30:07.552Z,100277.09
2022-09-04T10:33:21.587Z,100270.88
2022-09-04T10:36:31.887Z,100270.00
2022-09-04T10:40:04.404Z,100273.69
2022-09-04T10:43:26.519Z,100276.25
2022-09-04T10:46:26.498Z,100282.63
2022-09-04T10:49:19.266Z,100287.66
2022-09-04T10:52:24.659Z,100283.53
2022-09-04T10:55:56.584Z,100283.09
2022-09-04T10:59:13.419Z,100278.03
2022-09-04T11:02:15.779Z,100274.78
2022-09-04T11:05:26.793Z,100286.44
2022-09-04T11:08:36.545Z,100275.25
2022-09-04T11:11:45.155Z,100292.50
2022-09-04T11:14:59.824Z,100291.38
2022-09-04T11:18:24.609Z,100299.03
2022-09-04T11:21:43.147Z,100286.38
2022-09-04T11:24:42.225Z,100291.81
2022-09-04T11:28:06.954Z,100298.88
2022-09-04T11:31:13.443Z,100285.78
2022-09-04T11:34:14.016Z,100282.59
2022-09-04T11:36:59.065Z,100282.56
2022-09-04T11:40:10.541Z,100284.59
2022-09-04T11:47:23.449Z,100294.44
2022-09-04T11:50:47.716Z,100306.47
2022-09-04T11:54:20.566Z,100306.97
2022-09-04T11:57:13.901Z,100312.28
2022-09-04T12:00:07.704Z,100316.28
2022-09-04T12:03:27.961Z,100325.09
2022-09-04T12:06:44.303Z,100330.72
2022-09-04T12:10:01.309Z,100332.34
2022-09-04T12:41:50.632Z,100354.44
2022-09-04T12:44:59.983Z,100361.56
2022-09-04T12:47:54.402Z,100366.03
2022-09-04T12:51:10.047Z,100371.19
2022-09-04T12:53:57.582Z,100368.28
2022-09-04T12:57:08.973Z,100374.22
2022-09-04T13:00:15.508Z,100368.59
2022-09-04T13:03:29.493Z,100374.84
2022-09-04T13:06:27.388Z,100371.69
2022-09-04T13:09:05.983Z,100379.41
2022-09-04T13:11:50.661Z,100382.38
2022-09-04T13:14:27.042Z,100378.53
2022-09-04T13:17:18.962Z,100384.03
2022-09-04T13:19:48.537Z,100375.59
2022-09-04T13:22:33.706Z,100388.38
2022-09-04T13:25:56.126Z,100378.22
2022-09-04T13:28:41.132Z,100374.91
2022-09-04T13:31:19.733Z,100373.22
2022-09-04T13:33:56.075Z,100373.88
2022-09-04T13:36:23.806Z,100372.94
2022-09-04T13:39:04.986Z,100374.72
2022-09-04T13:42:10.902Z,100376.78
2022-09-04T13:44:41.076Z,100375.22
2022-09-04T13:51:20.240Z,100366.25
2022-09-04T13:54:18.460Z,100364.91
2022-09-04T14:01:23.981Z,100343.13
2022-09-04T14:04:16.924Z,100354.97
2022-09-04T14:07:14.701Z,100352.00
2022-09-04T14:10:09.105Z,100350.19
2022-09-04T17:40:39.279Z,100260.94
2022-09-04T17:40:57.003Z,100261.75
2022-09-04T17:44:07.067Z,100240.88
2022-09-04T17:50:58.427Z,100245.06
2022-09-04T17:53:38.713Z,100228.69
2022-09-04T17:56:18.617Z,100222.41
2022-09-04T18:02:49.831Z,100240.22
2022-09-04T18:10:01.062Z,100229.97
2022-09-04T18:13:36.484Z,100233.75
2022-09-04T18:20:28.179Z,100209.09
2022-09-04T18:23:07.316Z,100218.78
2022-09-04T18:25:55.180Z,100209.25
2022-09-04T18:28:33.875Z,100205.28
2022-09-04T18:37:05.990Z,100203.31
2022-09-04T18:37:17.798Z,100207.78
2022-09-04T18:37:46.158Z,100204.97
2022-09-04T18:47:08.439Z,100202.25
2022-09-04T18:50:24.013Z,100204.31
2022-09-04T18:51:33.401Z,100192.41
2022-09-04T18:54:29.779Z,100191.66
2022-09-04T18:57:48.687Z,100184.88
2022-09-04T19:00:46.766Z,100189.31
2022-09-04T19:04:19.470Z,100171.69
2022-09-04T19:07:27.654Z,100156.94
2022-09-04T19:10:32.732Z,100160.16
2022-09-04T19:13:28.961Z,100162.56
2022-09-04T19:16:37.584Z,100166.16
2022-09-04T19:19:26.779Z,100164.53
2022-09-04T19:22:28.472Z,100167.72
2022-09-04T19:25:20.846Z,100165.28
2022-09-04T19:28:17.069Z,100154.09
2022-09-04T19:31:29.998Z,100152.13
2022-09-04T19:34:48.645Z,100153.75
2022-09-04T19:43:45.321Z,100155.75
2022-09-04T19:46:11.289Z,100143.00
2022-09-04T19:48:27.737Z,100138.19
2022-09-04T19:53:22.584Z,100136.59
2022-09-04T19:54:59.843Z,100132.59
2022-09-04T19:58:15.283Z,100143.75
2022-09-04T20:01:07.263Z,100138.16
2022-09-04T20:04:04.119Z,100154.16
2022-09-04T20:07:01.528Z,100155.38
2022-09-04T20:14:13.823Z,100157.81
2022-09-04T20:17:31.094Z,100158.19
2022-09-04T20:20:23.316Z,100158.56
2022-09-04T20:23:33.833Z,100157.38
2022-09-04T20:26:28.531Z,100154.19
2022-09-04T20:29:22.449Z,100145.41
2022-09-04T20:32:26.888Z,100144.63
2022-09-04T20:35:22.329Z,100137.47
2022-09-04T20:38:30.695Z,100135.50
2022-09-04T20:42:10.007Z,100137.50
2022-09-04T20:47:23.065Z,100135.88
2022-09-04T20:52:58.763Z,100127.88
2022-09-04T20:55:36.581Z,100135.09
2022-09-04T21:03:13.511Z,100123.91
2022-09-04T21:05:50.673Z,100114.38
2022-09-04T21:08:38.070Z,100103.59
2022-09-04T21:11:40.787Z,100108.78
2022-09-04T21:14:09.816Z,100114.38
2022-09-04T21:16:45.839Z,100108.78
2022-09-04T21:19:33.110Z,100116.78
2022-09-04T21:22:38.643Z,100125.56
2022-09-04T21:25:18.643Z,100131.16
2022-09-04T21:28:03.690Z,100146.75
2022-09-04T21:31:01.154Z,100141.53
2022-09-04T21:34:01.293Z,100145.56
2022-09-04T21:36:39.207Z,100131.97
2022-09-04T21:39:17.859Z,100125.59
2022-09-04T21:42:16.522Z,100135.19
2022-09-04T21:45:00.100Z,100119.19
2022-09-04T21:47:30.477Z,100127.16
2022-09-04T21:58:04.935Z,100125.19
2022-09-04T22:02:37.797Z,100113.56
2022-09-04T22:02:42.415Z,100109.56
2022-09-04T22:05:18.515Z,100102.38
2022-09-04T22:12:58.735Z,100092.78
2022-09-04T22:19:46.713Z,100105.25
2022-09-04T22:27:08.279Z,100112.84
2022-09-04T22:30:03.867Z,100112.06
2022-09-04T22:33:03.391Z,100090.50
2022-09-04T22:36:18.372Z,100082.09
2022-09-04T22:39:12.334Z,100088.13
2022-09-04T22:49:25.711Z,100094.91
2022-09-04T22:52:23.840Z,100092.09
2022-09-04T22:55:29.388Z,100080.50
2022-09-04T22:58:31.212Z,100077.69
2022-09-04T23:01:28.969Z,100083.28
2022-09-04T23:04:30.971Z,100074.53
2022-09-04T23:11:46.674Z,100063.34
2022-09-04T23:13:51.500Z,100054.56
2022-09-04T23:14:00.386Z,100059.34
2022-09-04T23:16:15.014Z,100053.75
2022-09-04T23:24:02.578Z,100053.38
2022-09-04T23:26:35.820Z,100056.16
2022-09-04T23:26:45.163Z,100029.44
2022-09-04T23:30:04.295Z,100039.44
2022-09-04T23:33:16.149Z,100038.25
2022-09-04T23:37:02.085Z,100054.63
2022-09-04T23:40:15.053Z,100044.25
2022-09-04T23:43:36.231Z,100035.47
2022-09-04T23:46:32.251Z,100037.09
2022-09-04T23:49:46.552Z,100037.88
2022-09-04T23:52:49.614Z,100037.88
2022-09-04T23:56:01.000Z,100031.88
2022-09-04T23:59:22.618Z,100031.88
